createdAt,value
2019-05-21T00:05:49.565Z,14.62
2019-05-21T00:11:55.348Z,14.55
2019-05-21T00:18:01.160Z,14.51
2019-05-21T00:24:07.161Z,14.49
2019-05-21T00:31:07.027Z,14.55
2019-05-21T00:38:06.608Z,14.49
2019-05-21T00:44:12.391Z,14.37
2019-05-21T00:50:19.419Z,14.25
2019-05-21T00:56:25.335Z,14.22
2019-05-21T01:02:31.295Z,14.27
2019-05-21T01:08:37.105Z,14.28
2019-05-21T01:14:42.877Z,14.18
2019-05-21T01:20:48.646Z,14.04
2019-05-21T01:26:54.397Z,13.96
2019-05-21T01:33:00.173Z,13.91
2019-05-21T01:39:07.304Z,13.94
2019-05-21T01:45:13.530Z,13.85
2019-05-21T01:51:20.242Z,13.79
2019-05-21T01:57:25.964Z,13.73
2019-05-21T02:03:31.706Z,13.76
2019-05-21T02:09:56.305Z,13.78
2019-05-21T02:16:02.566Z,13.80
2019-05-21T02:22:08.472Z,13.66
2019-05-21T02:28:14.458Z,13.76
2019-05-21T02:34:20.266Z,13.68
2019-05-21T02:40:26.830Z,13.58
2019-05-21T02:46:33.096Z,13.65
2019-05-21T02:52:39.013Z,13.72
2019-05-21T02:58:44.766Z,13.71
2019-05-21T03:04:50.510Z,13.72
2019-05-21T03:10:56.510Z,13.66
2019-05-21T03:17:02.270Z,13.72
2019-05-21T03:23:08.291Z,13.76
2019-05-21T03:29:14.318Z,13.72
2019-05-21T03:35:20.242Z,13.70
2019-05-21T03:41:26.441Z,13.76
2019-05-21T03:47:32.158Z,13.72
2019-05-21T03:53:38.858Z,13.66
2019-05-21T03:59:44.750Z,13.65
2019-05-21T04:05:50.759Z,13.67
2019-05-21T04:11:56.543Z,13.65
2019-05-21T04:18:07.885Z,13.65
2019-05-21T04:24:15.887Z,13.60
2019-05-21T04:30:21.633Z,13.62
2019-05-21T04:36:27.628Z,13.65
2019-05-21T04:42:33.543Z,13.63
2019-05-21T04:48:39.475Z,13.64
2019-05-21T04:54:45.495Z,13.63
2019-05-21T05:00:51.232Z,13.68
2019-05-21T05:06:57.037Z,13.65
2019-05-21T05:13:02.811Z,13.67
2019-05-21T05:19:08.550Z,13.67
2019-05-21T05:25:15.421Z,13.64
2019-05-21T05:31:21.552Z,13.63
2019-05-21T05:37:42.564Z,13.59
2019-05-21T05:43:35.268Z,13.61
2019-05-21T05:49:45.148Z,13.64
2019-05-21T05:55:50.886Z,13.68
2019-05-21T06:01:56.706Z,13.65
2019-05-21T06:08:02.763Z,13.66
2019-05-21T06:14:08.949Z,13.63
2019-05-21T06:20:15.681Z,13.64
2019-05-21T06:26:21.797Z,13.60
2019-05-21T06:32:27.765Z,13.57
2019-05-21T06:38:33.790Z,13.66
2019-05-21T06:44:41.445Z,13.67
2019-05-21T06:50:47.192Z,13.77
2019-05-21T06:56:53.005Z,13.74
2019-05-21T07:02:58.843Z,13.66
2019-05-21T07:09:05.886Z,13.57
2019-05-21T07:15:12.167Z,13.52
2019-05-21T07:21:18.848Z,13.58
2019-05-21T07:27:24.755Z,13.61
2019-05-21T07:33:30.531Z,13.60
2019-05-21T07:39:37.182Z,13.63
2019-05-21T07:45:43.035Z,13.71
2019-05-21T07:51:49.344Z,13.72
2019-05-21T07:57:55.215Z,13.67
2019-05-21T08:04:01.255Z,13.61
2019-05-21T08:10:08.536Z,13.63
2019-05-21T08:16:14.557Z,13.73
2019-05-21T08:22:20.414Z,13.70
2019-05-21T08:28:26.204Z,13.57
2019-05-21T08:34:32.015Z,13.44
2019-05-21T08:40:39.477Z,13.49
2019-05-21T08:46:45.620Z,13.41
2019-05-21T08:52:51.776Z,13.55
2019-05-21T08:58:57.676Z,13.62
2019-05-21T09:05:03.568Z,13.55
2019-05-21T09:11:09.815Z,13.55
2019-05-21T09:17:15.561Z,13.54
2019-05-21T09:23:21.372Z,13.60
2019-05-21T09:29:27.165Z,13.72
2019-05-21T09:35:32.884Z,13.71
2019-05-21T09:41:40.475Z,13.85
2019-05-21T09:47:46.380Z,13.86
2019-05-21T09:53:52.180Z,13.80
2019-05-21T10:00:06.551Z,13.79
2019-05-21T10:06:12.288Z,13.74
2019-05-21T10:12:18.398Z,13.60
2019-05-21T10:18:24.272Z,13.71
2019-05-21T10:24:30.604Z,13.71
2019-05-21T10:30:37.231Z,13.79
2019-05-21T10:36:43.142Z,13.77
2019-05-21T10:42:48.878Z,13.93
2019-05-21T10:48:54.670Z,13.95
2019-05-21T10:55:00.594Z,13.89
2019-05-21T11:01:25.721Z,13.83
2019-05-21T11:07:31.816Z,13.84
2019-05-21T11:13:37.934Z,13.97
2019-05-21T11:19:43.916Z,14.03
2019-05-21T11:25:50.137Z,14.00
2019-05-21T11:31:57.648Z,13.95
2019-05-21T11:38:07.007Z,13.92
2019-05-21T11:44:13.129Z,13.95
2019-05-21T11:50:19.832Z,14.02
2019-05-21T11:56:25.997Z,14.07
2019-05-21T12:02:31.936Z,14.00
2019-05-21T12:08:37.830Z,13.98
2019-05-21T12:14:43.881Z,13.98
2019-05-21T12:20:49.692Z,14.07
2019-05-21T12:26:55.486Z,14.04
2019-05-21T12:33:01.497Z,14.14
2019-05-21T12:39:14.271Z,14.06
2019-05-21T12:45:17.639Z,14.07
2019-05-21T12:51:24.613Z,14.10
2019-05-21T12:57:30.405Z,14.14
2019-05-21T13:03:36.947Z,14.19
2019-05-21T13:09:42.839Z,14.27
2019-05-21T13:15:49.016Z,14.15
2019-05-21T13:21:54.979Z,14.21
2019-05-21T13:28:00.976Z,14.18
2019-05-21T13:34:07.230Z,14.30
2019-05-21T13:40:13.580Z,14.37
2019-05-21T13:46:19.573Z,14.34
2019-05-21T13:52:25.787Z,14.31
2019-05-21T13:58:32.895Z,14.22
2019-05-21T14:04:39.046Z,14.26
2019-05-21T14:10:44.903Z,14.40
2019-05-21T14:16:50.784Z,14.49
2019-05-21T14:22:56.623Z,14.41
2019-05-21T14:29:02.444Z,14.44
2019-05-21T14:35:08.671Z,14.55
2019-05-21T14:41:14.587Z,14.53
2019-05-21T14:47:20.567Z,14.51
2019-05-21T14:53:27.485Z,14.47
2019-05-21T14:59:33.520Z,14.49
2019-05-21T15:05:39.654Z,14.49
2019-05-21T15:11:45.477Z,14.45
2019-05-21T15:17:51.333Z,14.47
2019-05-21T15:23:57.588Z,14.57
2019-05-21T15:30:03.922Z,14.59
2019-05-21T15:36:09.945Z,14.57
2019-05-21T15:42:15.832Z,14.55
2019-05-21T15:48:26.039Z,14.55
2019-05-21T15:54:30.270Z,14.51
2019-05-21T16:00:36.150Z,14.42
2019-05-21T16:06:42.026Z,14.39
2019-05-21T16:12:47.949Z,14.41
2019-05-21T16:18:53.992Z,14.35
2019-05-21T16:24:59.851Z,14.26
2019-05-21T16:31:05.675Z,14.37
2019-05-21T16:37:12.063Z,14.34
2019-05-21T16:43:18.415Z,14.24
2019-05-21T16:49:25.624Z,14.20
2019-05-21T16:55:32.357Z,14.17
2019-05-21T17:01:38.139Z,14.22
2019-05-21T17:07:43.973Z,14.28
2019-05-21T17:13:50.098Z,14.17
2019-05-21T17:19:56.035Z,14.25
2019-05-21T17:26:02.356Z,14.17
2019-05-21T17:32:08.663Z,14.20
2019-05-21T17:38:16.428Z,14.20
2019-05-21T17:44:24.888Z,14.15
2019-05-21T17:50:29.833Z,14.17
2019-05-21T17:56:37.694Z,14.15
2019-05-21T18:09:02.346Z,14.06
2019-05-21T18:15:12.434Z,14.16
2019-05-21T18:21:18.682Z,14.21
2019-05-21T18:27:25.032Z,14.27
2019-05-21T18:33:30.783Z,14.29
2019-05-21T18:39:37.686Z,14.22
2019-05-21T18:45:44.068Z,14.22
2019-05-21T18:51:50.123Z,14.10
2019-05-21T18:57:56.319Z,14.10
2019-05-21T19:04:02.136Z,14.19
2019-05-21T19:10:08.674Z,13.97
2019-05-21T19:16:14.497Z,13.94
2019-05-21T19:22:20.582Z,13.87
2019-05-21T19:28:26.396Z,13.86
2019-05-21T19:34:32.242Z,13.83
2019-05-21T19:40:38.269Z,13.87
2019-05-21T19:46:44.219Z,13.90
2019-05-21T19:52:50.016Z,13.89
2019-05-21T19:58:55.953Z,13.82
2019-05-21T20:05:02.362Z,13.82
2019-05-21T20:11:09.366Z,13.86
2019-05-21T20:17:17.176Z,13.82
2019-05-21T20:23:24.862Z,13.68
2019-05-21T20:29:31.260Z,13.68
2019-05-21T20:35:38.309Z,13.58
2019-05-21T20:41:44.828Z,13.51
2019-05-21T20:47:52.350Z,13.42
2019-05-21T20:53:58.952Z,13.45
2019-05-21T21:00:05.718Z,13.37
2019-05-21T21:06:12.605Z,13.43
2019-05-21T21:12:19.409Z,13.26
2019-05-21T21:18:25.897Z,13.26
2019-05-21T21:24:31.836Z,13.28
2019-05-21T21:30:37.797Z,13.20
2019-05-21T21:36:44.122Z,13.17
2019-05-21T21:42:50.306Z,13.16
2019-05-21T21:48:56.751Z,13.20
2019-05-21T21:55:02.612Z,13.17
2019-05-21T22:01:46.577Z,13.13
2019-05-21T22:07:54.053Z,13.19
2019-05-21T22:14:00.813Z,13.05
2019-05-21T22:20:09.767Z,13.09
2019-05-21T22:26:15.762Z,13.14
2019-05-21T22:32:21.901Z,12.97
2019-05-21T22:38:28.441Z,12.93
2019-05-21T22:44:34.755Z,12.93
2019-05-21T22:50:40.686Z,12.94
2019-05-21T22:56:46.480Z,13.03
2019-05-21T23:02:52.862Z,12.94
2019-05-21T23:08:58.809Z,12.84
2019-05-21T23:15:04.929Z,12.90
2019-05-21T23:21:11.250Z,12.85
2019-05-21T23:27:17.722Z,12.76
2019-05-21T23:33:23.987Z,12.76
2019-05-21T23:39:31.445Z,12.77
2019-05-21T23:45:37.285Z,12.82
2019-05-21T23:51:43.565Z,12.75
2019-05-21T23:57:49.596Z,12.78
